createdAt,value
2019-05-22T00:00:30.504Z,16.96
2019-05-22T00:03:11.805Z,16.97
2019-05-22T00:05:48.379Z,17.00
2019-05-22T00:08:23.633Z,16.94
2019-05-22T00:10:59.983Z,16.89
2019-05-22T00:13:38.400Z,16.87
2019-05-22T00:16:15.697Z,16.78
2019-05-22T00:18:56.414Z,16.76
2019-05-22T00:21:31.826Z,16.74
2019-05-22T00:24:11.775Z,16.75
2019-05-22T00:26:47.021Z,16.74
2019-05-22T00:29:22.590Z,16.73
2019-05-22T00:32:13.724Z,16.73
2019-05-22T00:34:51.180Z,16.71
2019-05-22T00:37:30.539Z,16.63
2019-05-22T00:40:16.229Z,16.46
2019-05-22T00:43:04.052Z,16.46
2019-05-22T00:45:39.721Z,16.48
2019-05-22T00:48:21.894Z,16.37
2019-05-22T00:51:05.685Z,16.35
2019-05-22T00:53:52.849Z,16.30
2019-05-22T00:56:38.542Z,16.19
2019-05-22T00:59:35.459Z,16.19
2019-05-22T01:02:27.063Z,16.17
2019-05-22T01:05:02.154Z,16.17
2019-05-22T01:07:39.898Z,16.14
2019-05-22T01:10:15.877Z,16.13
2019-05-22T01:12:55.245Z,16.11
2019-05-22T01:15:32.327Z,16.10
2019-05-22T01:18:10.875Z,16.07
2019-05-22T01:20:49.102Z,16.07
2019-05-22T01:23:29.021Z,16.07
2019-05-22T01:26:03.492Z,16.01
2019-05-22T01:28:39.261Z,16.02
2019-05-22T01:31:22.834Z,15.95
2019-05-22T01:34:16.526Z,15.95
2019-05-22T01:36:53.368Z,15.94
2019-05-22T01:39:32.113Z,15.94
2019-05-22T01:42:10.907Z,15.89
2019-05-22T01:45:01.356Z,15.90
2019-05-22T01:47:33.905Z,15.87
2019-05-22T01:50:14.479Z,15.83
2019-05-22T01:52:51.765Z,15.80
2019-05-22T01:55:28.194Z,15.76
2019-05-22T01:58:04.449Z,15.74
2019-05-22T02:00:42.419Z,15.72
2019-05-22T02:03:18.107Z,15.67
2019-05-22T02:05:54.526Z,15.63
2019-05-22T02:08:31.038Z,15.62
2019-05-22T02:11:08.666Z,15.64
2019-05-22T02:13:52.682Z,15.66
2019-05-22T02:16:29.365Z,15.70
2019-05-22T02:19:05.458Z,15.69
2019-05-22T02:21:41.141Z,15.67
2019-05-22T02:24:18.952Z,15.63
2019-05-22T02:26:56.399Z,15.62
2019-05-22T02:29:33.596Z,15.56
2019-05-22T02:32:12.031Z,15.55
2019-05-22T02:34:48.102Z,15.55
2019-05-22T02:37:30.271Z,15.53
2019-05-22T02:40:24.873Z,15.50
2019-05-22T02:43:00.565Z,15.50
2019-05-22T02:45:36.721Z,15.42
2019-05-22T02:48:14.303Z,15.38
2019-05-22T02:50:50.224Z,15.31
2019-05-22T02:53:25.918Z,15.31
2019-05-22T02:56:07.036Z,15.28
2019-05-22T02:58:42.706Z,15.26
2019-05-22T03:01:19.320Z,15.25
2019-05-22T03:03:55.333Z,15.20
2019-05-22T03:06:31.596Z,15.22
2019-05-22T03:09:20.840Z,15.27
2019-05-22T03:12:02.449Z,15.22
2019-05-22T03:14:39.236Z,15.18
2019-05-22T03:17:19.645Z,15.18
2019-05-22T03:19:54.935Z,15.16
2019-05-22T03:22:44.876Z,15.17
2019-05-22T03:25:20.137Z,15.14
2019-05-22T03:27:55.272Z,15.15
2019-05-22T03:30:38.197Z,15.11
2019-05-22T03:33:15.698Z,15.12
2019-05-22T03:35:53.995Z,15.11
2019-05-22T03:38:31.424Z,15.12
2019-05-22T03:41:09.703Z,15.13
2019-05-22T03:43:45.450Z,15.13
2019-05-22T03:46:25.593Z,15.07
2019-05-22T03:49:01.717Z,15.05
2019-05-22T03:51:38.506Z,15.05
2019-05-22T03:54:15.172Z,15.09
2019-05-22T03:56:50.594Z,15.06
2019-05-22T03:59:26.983Z,15.02
2019-05-22T04:02:02.120Z,15.02
2019-05-22T04:04:40.762Z,14.96
2019-05-22T04:07:17.118Z,14.94
2019-05-22T04:09:53.086Z,14.94
2019-05-22T04:12:29.700Z,14.93
2019-05-22T04:15:08.075Z,14.87
2019-05-22T04:17:46.023Z,14.78
2019-05-22T04:20:21.735Z,14.72
2019-05-22T04:22:58.114Z,14.71
2019-05-22T04:25:33.639Z,14.61
2019-05-22T04:28:08.926Z,14.59
2019-05-22T04:30:47.146Z,14.61
2019-05-22T04:33:27.312Z,14.55
2019-05-22T04:36:03.311Z,14.56
2019-05-22T04:38:40.275Z,14.58
2019-05-22T04:41:15.671Z,14.62
2019-05-22T04:43:53.756Z,14.60
2019-05-22T04:46:30.210Z,14.58
2019-05-22T04:49:05.516Z,14.57
2019-05-22T04:51:40.801Z,14.50
2019-05-22T04:54:16.089Z,14.47
2019-05-22T04:56:51.812Z,14.40
2019-05-22T04:59:27.061Z,14.36
2019-05-22T05:02:05.058Z,14.39
2019-05-22T05:04:41.919Z,14.27
2019-05-22T05:07:19.311Z,14.30
2019-05-22T05:09:55.525Z,14.33
2019-05-22T05:12:31.050Z,14.32
2019-05-22T05:15:10.542Z,14.36
2019-05-22T05:17:46.087Z,14.36
2019-05-22T05:20:22.737Z,14.31
2019-05-22T05:22:58.092Z,14.31
2019-05-22T05:25:34.112Z,14.33
2019-05-22T05:28:11.497Z,14.31
2019-05-22T05:30:46.897Z,14.31
2019-05-22T05:33:23.191Z,14.33
2019-05-22T05:35:59.861Z,14.28
2019-05-22T05:38:41.523Z,14.28
2019-05-22T05:41:16.700Z,14.28
2019-05-22T05:43:54.511Z,14.21
2019-05-22T05:46:29.893Z,14.17
2019-05-22T05:49:05.572Z,14.22
2019-05-22T05:51:43.306Z,14.18
2019-05-22T05:54:19.464Z,14.10
2019-05-22T05:56:57.474Z,14.10
2019-05-22T05:59:34.466Z,14.06
2019-05-22T06:02:10.073Z,14.00
2019-05-22T06:04:54.643Z,13.95
2019-05-22T06:07:36.892Z,13.94
2019-05-22T06:10:29.733Z,13.93
2019-05-22T06:13:06.673Z,13.96
2019-05-22T06:16:15.559Z,13.95
2019-05-22T06:18:57.198Z,13.93
2019-05-22T06:21:32.535Z,13.80
2019-05-22T06:24:37.544Z,13.78
2019-05-22T06:27:16.044Z,13.77
2019-05-22T06:30:07.105Z,13.76
2019-05-22T06:32:57.958Z,13.76
2019-05-22T06:35:36.562Z,13.73
2019-05-22T06:38:47.505Z,13.67
2019-05-22T06:41:25.104Z,13.71
2019-05-22T06:44:26.079Z,13.84
2019-05-22T06:47:01.952Z,13.86
2019-05-22T06:49:43.431Z,13.84
2019-05-22T06:52:22.031Z,13.80
2019-05-22T06:54:58.722Z,13.78
2019-05-22T06:57:34.784Z,13.82
2019-05-22T07:00:16.214Z,13.79
2019-05-22T07:02:52.020Z,13.81
2019-05-22T07:05:33.602Z,13.80
2019-05-22T07:08:09.664Z,13.78
2019-05-22T07:10:46.753Z,13.87
2019-05-22T07:13:36.232Z,13.88
2019-05-22T07:16:30.607Z,13.90
2019-05-22T07:19:10.107Z,13.88
2019-05-22T07:21:47.116Z,13.95
2019-05-22T07:24:26.592Z,14.04
2019-05-22T07:27:32.111Z,14.09
2019-05-22T07:30:11.417Z,14.02
2019-05-22T07:32:54.189Z,13.97
2019-05-22T07:35:49.808Z,13.98
2019-05-22T07:38:11.254Z,14.03
2019-05-22T07:40:55.776Z,14.02
2019-05-22T07:43:40.894Z,14.08
2019-05-22T07:46:14.607Z,14.13
2019-05-22T07:48:51.740Z,14.22
2019-05-22T07:51:31.499Z,14.27
2019-05-22T07:54:08.777Z,14.18
2019-05-22T07:56:44.795Z,14.09
2019-05-22T07:59:22.098Z,14.07
2019-05-22T08:01:57.833Z,14.14
2019-05-22T08:04:33.183Z,14.21
2019-05-22T08:07:10.871Z,14.19
2019-05-22T08:09:50.026Z,14.18
2019-05-22T08:12:25.592Z,14.16
2019-05-22T08:15:01.386Z,14.21
2019-05-22T08:17:37.120Z,14.22
2019-05-22T08:20:13.204Z,14.35
2019-05-22T08:22:57.382Z,14.38
2019-05-22T08:25:32.944Z,14.31
2019-05-22T08:28:14.043Z,14.27
2019-05-22T08:30:49.472Z,14.35
2019-05-22T08:33:26.096Z,14.41
2019-05-22T08:36:09.923Z,14.42
2019-05-22T08:38:45.278Z,14.41
2019-05-22T08:41:27.962Z,14.47
2019-05-22T08:44:16.174Z,14.39
2019-05-22T08:46:40.675Z,14.49
2019-05-22T08:49:17.851Z,14.48
2019-05-22T08:52:00.156Z,14.53
2019-05-22T08:54:41.741Z,14.41
2019-05-22T08:57:20.218Z,14.52
2019-05-22T08:59:55.571Z,14.51
2019-05-22T09:02:37.169Z,14.65
2019-05-22T09:05:15.962Z,14.53
2019-05-22T09:07:56.880Z,14.50
2019-05-22T09:10:33.506Z,14.57
2019-05-22T09:13:12.493Z,14.51
2019-05-22T09:15:48.537Z,14.61
2019-05-22T09:18:25.446Z,14.60
2019-05-22T09:21:01.151Z,14.61
2019-05-22T09:23:44.644Z,14.65
2019-05-22T09:26:20.761Z,14.70
2019-05-22T09:28:57.390Z,14.73
2019-05-22T09:31:37.931Z,14.69
2019-05-22T09:34:14.327Z,14.72
2019-05-22T09:36:53.196Z,14.78
2019-05-22T09:39:48.847Z,14.77
2019-05-22T09:42:39.958Z,14.87
2019-05-22T09:45:19.584Z,14.80
2019-05-22T09:47:55.251Z,14.92
2019-05-22T09:50:36.390Z,14.99
2019-05-22T09:53:11.776Z,15.03
2019-05-22T09:55:53.914Z,15.09
2019-05-22T09:58:30.399Z,15.15
2019-05-22T10:01:11.522Z,15.26
2019-05-22T10:03:51.911Z,15.31
2019-05-22T10:06:27.653Z,15.31
2019-05-22T10:09:04.004Z,15.20
2019-05-22T10:11:39.180Z,14.98
2019-05-22T10:14:14.906Z,14.98
2019-05-22T10:16:55.323Z,15.04
2019-05-22T10:19:30.930Z,15.05
2019-05-22T10:22:12.831Z,15.15
2019-05-22T10:24:52.126Z,15.20
2019-05-22T10:27:28.989Z,15.18
2019-05-22T10:30:14.223Z,15.04
2019-05-22T10:32:50.992Z,15.03
2019-05-22T10:35:34.091Z,15.07
2019-05-22T10:38:11.550Z,15.13
2019-05-22T10:40:58.580Z,15.10
2019-05-22T10:43:31.354Z,15.22
2019-05-22T10:46:07.751Z,15.23
2019-05-22T10:48:43.362Z,15.12
2019-05-22T10:51:24.455Z,15.12
2019-05-22T10:54:02.240Z,15.00
2019-05-22T10:56:38.611Z,14.90
2019-05-22T10:59:14.116Z,14.91
2019-05-22T11:01:52.613Z,14.89
2019-05-22T11:04:29.934Z,14.83
2019-05-22T11:07:10.994Z,14.89
2019-05-22T11:09:46.826Z,14.90
2019-05-22T11:12:24.621Z,15.08
2019-05-22T11:15:02.131Z,15.03
2019-05-22T11:17:38.984Z,14.94
2019-05-22T11:20:14.833Z,14.97
2019-05-22T11:22:50.582Z,14.82
2019-05-22T11:25:25.883Z,14.88
2019-05-22T11:31:06.894Z,14.89
2019-05-22T11:33:46.953Z,15.01
2019-05-22T11:36:25.280Z,15.01
2019-05-22T11:39:17.170Z,14.99
2019-05-22T11:42:02.571Z,14.94
2019-05-22T11:45:01.100Z,14.93
2019-05-22T11:47:39.480Z,15.06
2019-05-22T11:50:20.218Z,15.12
2019-05-22T11:53:09.662Z,15.03
2019-05-22T11:55:53.631Z,15.04
2019-05-22T11:58:35.179Z,15.09
2019-05-22T12:01:11.642Z,14.95
2019-05-22T12:03:47.897Z,14.94
2019-05-22T12:06:35.628Z,14.91
2019-05-22T12:09:28.900Z,14.90
2019-05-22T12:12:11.321Z,14.84
2019-05-22T12:14:51.324Z,14.81
2019-05-22T12:17:37.568Z,14.84
2019-05-22T12:20:07.520Z,14.82
2019-05-22T12:22:43.833Z,14.78
2019-05-22T12:25:25.889Z,14.83
2019-05-22T12:28:15.411Z,14.84
2019-05-22T12:30:51.211Z,14.97
2019-05-22T12:33:27.577Z,15.00
2019-05-22T12:36:06.690Z,14.97
2019-05-22T12:38:56.671Z,14.86
2019-05-22T12:41:43.417Z,14.72
2019-05-22T12:44:22.818Z,14.77
2019-05-22T12:47:00.916Z,14.70
2019-05-22T12:49:41.901Z,14.68
2019-05-22T12:52:22.502Z,14.72
2019-05-22T12:55:15.350Z,14.56
2019-05-22T12:57:54.939Z,14.60
2019-05-22T13:00:34.182Z,14.64
2019-05-22T13:03:25.905Z,14.65
2019-05-22T13:06:11.314Z,14.69
2019-05-22T13:08:49.292Z,14.70
2019-05-22T13:11:26.376Z,14.70
2019-05-22T13:14:01.715Z,14.57
2019-05-22T13:16:42.275Z,14.62
2019-05-22T13:19:18.228Z,14.61
2019-05-22T13:21:54.591Z,14.53
2019-05-22T13:24:30.978Z,14.56
2019-05-22T13:27:07.987Z,14.58
2019-05-22T13:29:46.317Z,14.56
2019-05-22T13:32:22.810Z,14.52
2019-05-22T13:35:01.742Z,14.43
2019-05-22T13:37:48.725Z,14.48
2019-05-22T13:40:30.837Z,14.44
2019-05-22T13:43:14.644Z,14.32
2019-05-22T13:45:51.016Z,14.31
2019-05-22T13:48:46.316Z,14.21
2019-05-22T13:51:25.562Z,14.15
2019-05-22T13:54:05.509Z,14.10
2019-05-22T13:56:58.502Z,14.11
2019-05-22T13:59:43.989Z,14.09
2019-05-22T14:02:31.570Z,14.24
2019-05-22T14:05:07.590Z,14.20
2019-05-22T14:07:43.129Z,14.20
2019-05-22T14:10:19.941Z,14.07
2019-05-22T14:12:56.195Z,13.98
2019-05-22T14:15:49.918Z,14.04
2019-05-22T14:18:29.774Z,14.05
2019-05-22T14:21:09.195Z,14.02
2019-05-22T14:23:51.850Z,14.02
2019-05-22T14:26:32.289Z,14.07
2019-05-22T14:29:21.067Z,14.10
2019-05-22T14:32:01.670Z,14.13
2019-05-22T14:34:38.809Z,14.10
2019-05-22T14:37:25.559Z,14.11
2019-05-22T14:40:18.603Z,14.14
2019-05-22T14:43:02.270Z,14.25
2019-05-22T14:45:51.034Z,14.31
2019-05-22T14:48:33.237Z,14.33
2019-05-22T14:51:12.509Z,14.33
2019-05-22T14:53:59.142Z,14.30
2019-05-22T14:56:38.576Z,14.27
2019-05-22T14:59:17.276Z,14.21
2019-05-22T15:02:01.314Z,14.10
2019-05-22T15:04:53.508Z,14.15
2019-05-22T15:07:42.442Z,14.10
2019-05-22T15:10:22.789Z,13.97
2019-05-22T15:13:22.343Z,13.95
2019-05-22T15:16:04.869Z,13.99
2019-05-22T15:18:41.953Z,14.01
2019-05-22T15:27:43.718Z,13.94
2019-05-22T15:30:22.470Z,13.93
2019-05-22T15:33:13.156Z,13.98
2019-05-22T15:35:49.976Z,13.99
2019-05-22T15:38:31.382Z,13.98
2019-05-22T15:41:20.911Z,14.00
2019-05-22T15:44:03.262Z,14.01
2019-05-22T15:49:41.922Z,14.04
2019-05-22T15:55:46.683Z,14.13
2019-05-22T15:58:27.344Z,14.12
2019-05-22T16:01:11.649Z,14.06
2019-05-22T16:03:57.988Z,14.08
2019-05-22T16:10:09.592Z,14.06
2019-05-22T16:12:56.506Z,14.05
2019-05-22T16:21:51.874Z,14.18
2019-05-22T16:24:32.629Z,14.14
2019-05-22T16:27:24.410Z,14.14
2019-05-22T16:30:10.247Z,14.13
2019-05-22T16:33:32.514Z,14.03
2019-05-22T16:36:30.579Z,14.02
2019-05-22T16:39:19.888Z,14.05
2019-05-22T16:42:12.297Z,14.03
2019-05-22T16:48:03.718Z,14.05
2019-05-22T16:51:06.250Z,14.08
2019-05-22T17:07:37.858Z,13.99
2019-05-22T17:10:16.644Z,13.93
2019-05-22T17:13:00.627Z,13.93
2019-05-22T17:15:41.172Z,13.91
2019-05-22T17:18:21.501Z,13.94
2019-05-22T17:20:59.892Z,14.01
2019-05-22T17:23:41.473Z,13.98
2019-05-22T17:26:19.279Z,13.99
2019-05-22T17:28:56.907Z,14.04
2019-05-22T17:31:34.507Z,14.08
2019-05-22T17:34:11.334Z,13.99
2019-05-22T17:36:48.535Z,14.07
2019-05-22T17:39:24.623Z,14.07
2019-05-22T17:42:05.004Z,14.03
2019-05-22T17:44:41.054Z,14.03
2019-05-22T17:47:17.668Z,14.03
2019-05-22T17:49:58.028Z,14.01
2019-05-22T17:52:37.642Z,14.01
2019-05-22T17:55:20.621Z,14.01
2019-05-22T17:58:11.484Z,14.00
2019-05-22T18:00:49.453Z,14.05
2019-05-22T18:03:26.132Z,13.99
2019-05-22T18:06:06.257Z,13.97
2019-05-22T18:08:44.764Z,13.96
2019-05-22T18:11:30.042Z,13.96
2019-05-22T18:14:08.131Z,13.95
2019-05-22T18:16:49.816Z,13.94
2019-05-22T18:19:25.816Z,13.93
2019-05-22T18:22:02.306Z,13.90
2019-05-22T18:28:14.152Z,13.85
2019-05-22T18:33:50.053Z,13.84
2019-05-22T18:36:33.308Z,13.83
2019-05-22T18:39:13.648Z,13.83
2019-05-22T18:41:51.745Z,13.84
2019-05-22T18:44:26.897Z,13.83
2019-05-22T18:47:08.979Z,13.85
2019-05-22T18:49:51.252Z,13.84
2019-05-22T18:52:40.727Z,13.83
2019-05-22T18:55:19.238Z,13.83
2019-05-22T18:57:57.898Z,13.82
2019-05-22T19:00:36.410Z,13.82
2019-05-22T19:03:17.057Z,13.83
2019-05-22T19:05:54.265Z,13.84
2019-05-22T19:08:42.077Z,13.82
2019-05-22T19:11:20.239Z,13.82
2019-05-22T19:14:04.146Z,13.87
2019-05-22T19:16:50.433Z,13.87
2019-05-22T19:19:53.069Z,13.85
2019-05-22T19:22:58.369Z,13.83
2019-05-22T19:25:34.319Z,13.85
2019-05-22T19:28:21.585Z,13.83
2019-05-22T19:31:02.857Z,13.77
2019-05-22T19:33:43.936Z,13.77
2019-05-22T19:36:40.023Z,13.86
2019-05-22T19:39:26.994Z,13.84
2019-05-22T19:42:11.490Z,13.84
2019-05-22T19:44:50.495Z,13.85
2019-05-22T19:47:48.691Z,13.84
2019-05-22T19:50:22.698Z,13.82
2019-05-22T19:53:15.695Z,13.83
2019-05-22T19:55:48.936Z,13.83
2019-05-22T20:05:29.656Z,13.87
2019-05-22T20:08:11.227Z,13.83
2019-05-22T20:11:00.397Z,13.80
2019-05-22T20:13:47.474Z,13.79
2019-05-22T20:16:37.673Z,13.79
2019-05-22T20:19:14.401Z,13.77
2019-05-22T20:22:31.310Z,13.76
2019-05-22T20:25:30.963Z,13.76
2019-05-22T20:28:36.210Z,13.72
2019-05-22T20:34:29.022Z,13.66
2019-05-22T20:37:07.224Z,13.66
2019-05-22T20:39:52.262Z,13.67
2019-05-22T20:42:28.603Z,13.69
2019-05-22T20:45:06.023Z,13.72
2019-05-22T20:47:48.233Z,13.77
2019-05-22T20:50:25.573Z,13.80
2019-05-22T20:53:01.490Z,13.79
2019-05-22T20:55:39.779Z,13.77
2019-05-22T20:58:17.908Z,13.76
2019-05-22T21:00:58.859Z,13.72
2019-05-22T21:03:34.365Z,13.70
2019-05-22T21:06:13.011Z,13.70
2019-05-22T21:08:48.540Z,13.64
2019-05-22T21:11:26.174Z,13.64
2019-05-22T21:14:01.835Z,13.66
2019-05-22T21:16:37.416Z,13.69
2019-05-22T21:19:16.781Z,13.74
2019-05-22T21:21:52.996Z,13.76
2019-05-22T21:24:29.259Z,13.81
2019-05-22T21:27:06.558Z,13.81
2019-05-22T21:29:43.096Z,13.78
2019-05-22T21:32:19.289Z,13.75
2019-05-22T21:34:55.626Z,13.78
2019-05-22T21:37:32.435Z,13.73
2019-05-22T21:40:09.116Z,13.69
2019-05-22T21:42:47.039Z,13.71
2019-05-22T21:45:24.538Z,13.69
2019-05-22T21:48:06.909Z,13.73
2019-05-22T21:50:42.902Z,13.70
2019-05-22T21:53:19.757Z,13.73
2019-05-22T21:56:04.322Z,13.73
2019-05-22T21:58:35.161Z,13.66
2019-05-22T22:01:12.496Z,13.69
2019-05-22T22:03:55.989Z,13.72
2019-05-22T22:06:33.268Z,13.72
2019-05-22T22:09:09.156Z,13.65
2019-05-22T22:11:46.624Z,13.66
2019-05-22T22:14:22.759Z,13.71
2019-05-22T22:17:00.631Z,13.70
2019-05-22T22:19:38.603Z,13.68
2019-05-22T22:22:18.052Z,13.61
2019-05-22T22:24:53.495Z,13.62
2019-05-22T22:27:32.701Z,13.63
2019-05-22T22:30:11.944Z,13.66
2019-05-22T22:32:47.467Z,13.59
2019-05-22T22:35:27.144Z,13.52
2019-05-22T22:38:06.387Z,13.45
2019-05-22T22:40:43.154Z,13.40
2019-05-22T22:43:20.917Z,13.36
2019-05-22T22:45:59.641Z,13.33
2019-05-22T22:48:38.482Z,13.34
2019-05-22T22:51:15.513Z,13.29
2019-05-22T22:53:51.939Z,13.26
2019-05-22T22:56:27.445Z,13.22
2019-05-22T22:59:03.823Z,13.23
2019-05-22T23:01:42.239Z,13.18
2019-05-22T23:04:18.481Z,13.15
2019-05-22T23:06:55.175Z,13.15
2019-05-22T23:09:32.198Z,13.12
2019-05-22T23:12:08.107Z,13.14
2019-05-22T23:14:47.255Z,13.10
2019-05-22T23:17:22.594Z,13.08
2019-05-22T23:19:56.667Z,13.05
2019-05-22T23:22:31.779Z,13.02
2019-05-22T23:25:07.083Z,13.00
2019-05-22T23:27:43.032Z,12.99
2019-05-22T23:30:21.044Z,13.00
2019-05-22T23:32:59.456Z,13.01
2019-05-22T23:35:36.446Z,13.00
2019-05-22T23:38:11.988Z,12.96
2019-05-22T23:40:47.217Z,12.95
2019-05-22T23:43:22.336Z,12.96
2019-05-22T23:45:59.069Z,12.96
2019-05-22T23:48:35.052Z,12.91
2019-05-22T23:51:10.414Z,12.90
2019-05-22T23:53:45.975Z,12.89
2019-05-22T23:56:22.720Z,12.84
2019-05-22T23:58:58.864Z,12.67
